Whitefish Bay, Wisconsin
Current Conditions -  °F | °C
As of 2:45 PM on Thursday 18 Dec 2014 (Local Time) from KMWC Reporting Station
Overcast Overcast  
Wind Chill: 22°   Ceiling: 800
Heat Index: 28°   Visibility: 7mi
Dew Point: 25°   Wind: 6mph
Humidity: 86%   Direction: 310°NW
Pressure: 30.23"   Gusts: NA
Location:  43.1576°N, 87.9144°W
Report Text: KMWC 182045Z AUTO 31005KT 7SM OVC008 M02/M04 A3023
Loading
Personal Weather Stations






























Interactive Weather Map New forecast layout! Learn more

10-Day Weather Forecast

Advertisements
Track Severe Weather on mobile